Time,TemperatureF,DewpointF,PressureIn,WindDirection,WindDirectionDegrees,WindSpeedMPH,WindSpeedGustMPH,Humidity,HourlyPrecipIn,Conditions,Clouds,dailyrainin,SolarRadiationWatts/m^2,SoftwareType,DateUTC
2013-04-18 00:00:00,52.0,46.7,29.00,SW,226,0.0,0.0,82,0.00,CLR,FEW,0.00,0.0,WeatherDisplay:10.37,2013-04-17 22:00:00,
2013-04-18 00:05:00,51.3,46.0,28.97,South,190,0.0,0.0,82,0.00,CLR,FEW,0.00,0.0,WeatherDisplay:10.37,2013-04-17 22:05:00,
2013-04-18 00:10:00,50.7,45.7,28.97,WSW,245,0.0,0.0,83,0.00,CLR,FEW,0.00,0.0,WeatherDisplay:10.37,2013-04-17 22:10:00,
2013-04-18 00:15:00,50.9,46.2,28.97,SW,220,0.0,0.0,84,0.00,CLR,FEW,0.00,0.0,WeatherDisplay:10.37,2013-04-17 22:15:00,
2013-04-18 00:20:00,50.4,45.7,28.97,South,170,0.0,0.0,84,0.00,CLR,FEW,0.00,0.0,WeatherDisplay:10.37,2013-04-17 22:20:00,
2013-04-18 00:25:00,50.4,45.7,28.97,South,170,0.0,0.0,84,0.00,CLR,FEW,0.00,0.0,WeatherDisplay:10.37,2013-04-17 22:25:00,
2013-04-18 00:30:00,50.4,45.7,28.97,WSW,245,0.0,0.0,84,0.00,CLR,FEW,0.00,0.0,WeatherDisplay:10.37,2013-04-17 22:30:00,
2013-04-18 00:35:00,50.9,46.2,29.00,SSE,165,0.0,0.0,84,0.00,CLR,FEW,0.00,0.0,WeatherDisplay:10.37,2013-04-17 22:35:00,
2013-04-18 00:40:00,50.0,45.4,29.00,SW,235,0.0,0.0,84,0.00,CLR,FEW,0.00,0.0,WeatherDisplay:10.37,2013-04-17 22:40:00,
2013-04-18 00:45:00,50.2,45.8,28.97,SSW,205,0.0,0.0,85,0.00,CLR,FEW,0.00,0.0,WeatherDisplay:10.37,2013-04-17 22:45:00,
2013-04-18 00:50:00,49.8,45.5,28.97,South,175,0.0,0.0,85,0.00,CLR,FEW,0.00,0.0,WeatherDisplay:10.37,2013-04-17 22:50:00,
2013-04-18 00:55:00,49.8,45.5,28.97,South,175,0.0,0.0,85,0.00,CLR,FEW,0.00,0.0,WeatherDisplay:10.37,2013-04-17 22:55:00,
2013-04-18 01:00:00,50.0,45.7,28.97,SW,235,0.0,0.0,85,0.00,CLR,FEW,0.00,0.0,WeatherDisplay:10.37,2013-04-17 23:00:00,
2013-04-18 01:05:00,50.5,46.2,29.00,WSW,240,0.0,0.0,85,0.00,CLR,FEW,0.00,0.0,WeatherDisplay:10.37,2013-04-17 23:05:00,
2013-04-18 01:10:00,50.0,45.7,29.00,South,185,0.0,0.0,85,0.00,CLR,FEW,0.00,0.0,WeatherDisplay:10.37,2013-04-17 23:10:00,
2013-04-18 01:15:00,50.0,45.7,29.00,SW,215,0.0,0.0,85,0.00,CLR,FEW,0.00,0.0,WeatherDisplay:10.37,2013-04-17 23:15:00,
2013-04-18 01:20:00,49.8,45.5,29.00,South,170,0.0,0.0,85,0.00,CLR,FEW,0.00,0.0,WeatherDisplay:10.37,2013-04-17 23:20:00,
2013-04-18 01:25:00,49.8,45.5,29.00,South,170,0.0,0.0,85,0.00,CLR,FEW,0.00,0.0,WeatherDisplay:10.37,2013-04-17 23:25:00,
2013-04-18 01:30:00,50.0,46.0,29.00,SW,235,0.0,0.0,86,0.00,CLR,FEW,0.00,0.0,WeatherDisplay:10.37,2013-04-17 23:30:00,
2013-04-18 01:35:00,48.9,44.9,28.97,SSW,195,0.0,0.0,86,0.00,CLR,FEW,0.00,0.0,WeatherDisplay:10.37,2013-04-17 23:35:00,
2013-04-18 01:40:00,49.1,45.4,28.97,SW,230,0.0,0.0,87,0.00,CLR,FEW,0.00,0.0,WeatherDisplay:10.37,2013-04-17 23:40:00,
2013-04-18 01:45:00,49.6,45.9,28.97,WSW,240,0.0,0.0,87,0.00,CLR,FEW,0.00,0.0,WeatherDisplay:10.37,2013-04-17 23:45:00,
2013-04-18 01:50:00,48.7,45.0,28.97,South,175,0.0,0.0,87,0.00,CLR,FEW,0.00,0.0,WeatherDisplay:10.37,2013-04-17 23:50:00,
2013-04-18 01:55:00,48.7,45.0,28.97,South,175,0.0,0.0,87,0.00,CLR,FEW,0.00,0.0,WeatherDisplay:10.37,2013-04-17 23:55:00,
2013-04-18 02:00:00,48.9,45.2,28.97,SW,230,0.0,0.0,87,0.00,CLR,FEW,0.00,0.0,WeatherDisplay:10.37,2013-04-18 00:00:00,
2013-04-18 02:05:00,49.5,45.8,28.97,SW,235,0.0,0.0,87,0.00,CLR,FEW,0.00,0.0,WeatherDisplay:10.37,2013-04-18 00:05:00,
2013-04-18 02:10:00,48.6,44.9,28.97,North,5,0.0,0.0,87,0.00,CLR,FEW,0.00,0.0,WeatherDisplay:10.37,2013-04-18 00:10:00,
2013-04-18 02:15:00,47.8,44.2,28.97,SW,215,0.0,0.0,87,0.00,CLR,FEW,0.00,0.0,WeatherDisplay:10.37,2013-04-18 00:15:00,
2013-04-18 02:20:00,47.8,44.5,28.97,SW,220,0.0,0.0,88,0.00,CLR,FEW,0.00,0.0,WeatherDisplay:10.37,2013-04-18 00:20:00,
2013-04-18 02:25:00,47.8,44.5,28.97,SW,220,0.0,0.0,88,0.00,CLR,FEW,0.00,0.0,WeatherDisplay:10.37,2013-04-18 00:25:00,
2013-04-18 02:30:00,48.7,45.3,28.97,SW,235,0.0,0.0,88,0.00,CLR,FEW,0.00,0.0,WeatherDisplay:10.37,2013-04-18 00:30:00,
2013-04-18 02:35:00,48.0,44.6,28.97,SSW,210,0.0,0.0,88,0.00,CLR,FEW,0.00,0.0,WeatherDisplay:10.37,2013-04-18 00:35:00,
2013-04-18 02:40:00,47.8,44.5,28.97,SW,215,0.0,0.0,88,0.00,CLR,FEW,0.00,0.0,WeatherDisplay:10.37,2013-04-18 00:40:00,
2013-04-18 02:45:00,47.7,44.3,28.97,SSW,210,0.0,0.0,88,0.00,CLR,FEW,0.00,0.0,WeatherDisplay:10.37,2013-04-18 00:45:00,
2013-04-18 02:50:00,47.7,44.3,28.97,SSW,210,0.0,0.0,88,0.00,CLR,FEW,0.00,0.0,WeatherDisplay:10.37,2013-04-18 00:50:00,
2013-04-18 02:55:00,47.7,44.3,28.97,SSW,210,0.0,0.0,88,0.00,CLR,FEW,0.00,0.0,WeatherDisplay:10.37,2013-04-18 00:55:00,
2013-04-18 03:00:00,48.4,45.0,28.97,WSW,240,0.0,0.0,88,0.00,CLR,FEW,0.00,0.0,WeatherDisplay:10.37,2013-04-18 01:00:00,
2013-04-18 03:05:00,47.5,44.1,28.97,South,180,0.0,0.0,88,0.00,CLR,FEW,0.00,0.0,WeatherDisplay:10.37,2013-04-18 01:05:00,
2013-04-18 03:10:00,47.1,43.7,28.97,South,190,0.0,0.0,88,0.00,CLR,FEW,0.00,0.0,WeatherDisplay:10.37,2013-04-18 01:10:00,
2013-04-18 03:15:00,47.3,44.2,28.97,SW,215,0.0,0.0,89,0.00,CLR,FEW,0.00,0.0,WeatherDisplay:10.37,2013-04-18 01:15:00,
2013-04-18 03:20:00,46.9,43.9,28.97,SSE,165,0.0,0.0,89,0.00,CLR,FEW,0.00,0.0,WeatherDisplay:10.37,2013-04-18 01:20:00,
2013-04-18 03:25:00,46.9,43.9,28.97,SSE,165,0.0,0.0,89,0.00,CLR,FEW,0.00,0.0,WeatherDisplay:10.37,2013-04-18 01:25:00,
2013-04-18 03:30:00,47.1,44.0,28.97,SW,225,0.0,0.0,89,0.00,CLR,FEW,0.00,0.0,WeatherDisplay:10.37,2013-04-18 01:30:00,
2013-04-18 03:35:00,47.8,44.8,28.97,WSW,245,1.1,1.1,89,0.00,CLR,FEW,0.00,0.0,WeatherDisplay:10.37,2013-04-18 01:35:00,
2013-04-18 03:40:00,47.5,44.4,28.97,South,175,0.0,0.0,89,0.00,CLR,FEW,0.00,0.0,WeatherDisplay:10.37,2013-04-18 01:40:00,
2013-04-18 03:45:00,46.9,43.9,28.97,SW,215,0.0,0.0,89,0.00,CLR,FEW,0.00,0.0,WeatherDisplay:10.37,2013-04-18 01:45:00,
2013-04-18 03:50:00,48.0,44.9,28.97,South,190,0.0,0.0,89,0.00,CLR,FEW,0.00,0.0,WeatherDisplay:10.37,2013-04-18 01:50:00,
2013-04-18 03:55:00,48.0,44.9,28.97,South,190,0.0,0.0,89,0.00,CLR,FEW,0.00,0.0,WeatherDisplay:10.37,2013-04-18 01:55:00,
2013-04-18 04:00:00,47.1,43.7,28.97,SSE,165,0.0,0.0,88,0.00,CLR,FEW,0.00,0.0,WeatherDisplay:10.37,2013-04-18 02:00:00,
2013-04-18 04:05:00,47.3,44.2,28.94,WSW,240,1.1,1.1,89,0.00,CLR,FEW,0.00,0.0,WeatherDisplay:10.37,2013-04-18 02:05:00,
2013-04-18 04:10:00,47.8,44.8,28.94,WSW,245,0.0,0.0,89,0.00,CLR,FEW,0.00,0.0,WeatherDisplay:10.37,2013-04-18 02:10:00,
2013-04-18 04:15:00,47.3,44.2,28.94,South,175,0.0,0.0,89,0.00,CLR,FEW,0.00,0.0,WeatherDisplay:10.37,2013-04-18 02:15:00,
2013-04-18 04:20:00,47.1,44.0,28.94,SW,215,0.0,0.0,89,0.00,CLR,FEW,0.00,0.0,WeatherDisplay:10.37,2013-04-18 02:20:00,
2013-04-18 04:25:00,47.1,44.0,28.94,SW,215,0.0,0.0,89,0.00,CLR,FEW,0.00,0.0,WeatherDisplay:10.37,2013-04-18 02:25:00,
2013-04-18 04:30:00,46.2,43.2,28.94,WSW,240,0.0,0.0,89,0.00,CLR,FEW,0.00,0.0,WeatherDisplay:10.37,2013-04-18 02:30:00,
2013-04-18 04:35:00,46.0,43.0,28.94,SW,230,0.0,0.0,89,0.00,CLR,FEW,0.00,0.0,WeatherDisplay:10.37,2013-04-18 02:35:00,
2013-04-18 04:40:00,46.4,43.6,28.94,WSW,250,1.1,1.1,90,0.00,CLR,FEW,0.00,0.0,WeatherDisplay:10.37,2013-04-18 02:40:00,
2013-04-18 04:45:00,46.8,44.0,28.94,SSW,205,0.0,0.0,90,0.00,CLR,FEW,0.00,0.0,WeatherDisplay:10.37,2013-04-18 02:45:00,
2013-04-18 04:50:00,46.0,43.3,28.94,South,180,0.0,0.4,90,0.00,CLR,FEW,0.00,0.0,WeatherDisplay:10.37,2013-04-18 02:50:00,
2013-04-18 04:55:00,46.0,43.3,28.94,South,180,0.0,0.4,90,0.00,CLR,FEW,0.00,0.0,WeatherDisplay:10.37,2013-04-18 02:55:00,
2013-04-18 05:00:00,46.4,43.6,28.94,SW,230,0.0,0.0,90,0.00,CLR,FEW,0.00,0.0,WeatherDisplay:10.37,2013-04-18 03:00:00,
2013-04-18 05:05:00,46.8,44.0,28.94,SW,235,0.0,0.2,90,0.00,CLR,FEW,0.00,0.0,WeatherDisplay:10.37,2013-04-18 03:05:00,
2013-04-18 05:10:00,46.9,44.2,28.94,West,260,0.0,0.0,90,0.00,CLR,FEW,0.00,0.0,WeatherDisplay:10.37,2013-04-18 03:10:00,
2013-04-18 05:15:00,46.6,43.8,28.94,South,185,0.0,0.0,90,0.00,CLR,FEW,0.00,0.0,WeatherDisplay:10.37,2013-04-18 03:15:00,
2013-04-18 05:20:00,46.6,43.8,28.94,WSW,240,0.0,0.0,90,0.00,CLR,FEW,0.00,0.0,WeatherDisplay:10.37,2013-04-18 03:20:00,
2013-04-18 05:25:00,46.6,43.8,28.94,WSW,240,0.0,0.0,90,0.00,CLR,FEW,0.00,0.0,WeatherDisplay:10.37,2013-04-18 03:25:00,
2013-04-18 05:30:00,45.5,42.7,28.94,WSW,240,0.0,0.0,90,0.00,CLR,FEW,0.00,0.0,WeatherDisplay:10.37,2013-04-18 03:30:00,
2013-04-18 05:35:00,45.9,43.4,28.94,SW,235,0.0,0.0,91,0.00,CLR,FEW,0.00,0.0,WeatherDisplay:10.37,2013-04-18 03:35:00,
2013-04-18 05:40:00,46.0,43.6,28.94,SW,215,0.0,0.0,91,0.00,CLR,FEW,0.00,0.0,WeatherDisplay:10.37,2013-04-18 03:40:00,
2013-04-18 05:45:00,46.2,43.7,28.94,South,180,0.0,0.0,91,0.00,CLR,FEW,0.00,0.0,WeatherDisplay:10.37,2013-04-18 03:45:00,
2013-04-18 05:50:00,46.0,43.6,28.94,South,190,0.0,0.0,91,0.00,CLR,FEW,0.00,0.0,WeatherDisplay:10.37,2013-04-18 03:50:00,
2013-04-18 05:55:00,46.0,43.6,28.94,South,190,0.0,0.0,91,0.00,CLR,FEW,0.00,0.0,WeatherDisplay:10.37,2013-04-18 03:55:00,
2013-04-18 06:00:00,45.5,42.7,28.94,South,190,0.0,0.0,90,0.00,OVC,FEW,0.00,0.0,WeatherDisplay:10.37,2013-04-18 04:00:00,
2013-04-18 06:01:00,45.5,42.7,28.94,South,190,0.0,0.0,90,0.00,OVC,FEW,0.00,0.0,WeatherDisplay:10.37,2013-04-18 04:01:00,
2013-04-18 06:06:00,45.3,42.6,28.94,SSW,200,1.1,1.1,90,0.00,OVC,FEW,0.00,0.0,WeatherDisplay:10.37,2013-04-18 04:06:00,
2013-04-18 06:11:00,45.5,43.0,28.94,SW,230,0.0,0.0,91,0.00,OVC,FEW,0.00,0.0,WeatherDisplay:10.37,2013-04-18 04:11:00,
2013-04-18 06:16:00,45.7,43.2,28.91,SW,225,0.0,0.0,91,0.00,OVC,FEW,0.00,0.0,WeatherDisplay:10.37,2013-04-18 04:16:00,
2013-04-18 06:21:00,46.0,43.6,28.91,SSE,160,0.0,0.0,91,0.00,OVC,FEW,0.00,0.0,WeatherDisplay:10.37,2013-04-18 04:21:00,
2013-04-18 06:26:00,45.3,42.8,28.91,WSW,245,0.0,0.0,91,0.00,OVC,FEW,0.00,0.0,WeatherDisplay:10.37,2013-04-18 04:26:00,
2013-04-18 06:32:00,45.3,42.8,28.91,WSW,245,0.0,0.0,91,0.00,OVC,FEW,0.00,0.0,WeatherDisplay:10.37,2013-04-18 04:32:00,
2013-04-18 06:37:00,44.8,42.3,28.94,SSW,200,0.0,0.0,91,0.00,OVC,FEW,0.00,0.0,WeatherDisplay:10.37,2013-04-18 04:37:00,
2013-04-18 06:42:00,45.0,42.5,28.94,SW,225,0.0,0.0,91,0.00,OVC,FEW,0.00,0.0,WeatherDisplay:10.37,2013-04-18 04:42:00,
2013-04-18 06:47:00,45.3,42.8,28.91,SW,225,0.0,0.0,91,0.00,OVC,FEW,0.00,0.0,WeatherDisplay:10.37,2013-04-18 04:47:00,
2013-04-18 06:52:00,45.5,43.0,28.91,SSW,210,0.0,0.0,91,0.00,OVC,FEW,0.00,0.0,WeatherDisplay:10.37,2013-04-18 04:52:00,
2013-04-18 06:57:00,45.7,43.2,28.91,SW,235,0.0,0.0,91,0.00,OVC,FEW,0.00,0.0,WeatherDisplay:10.37,2013-04-18 04:57:00,
2013-04-18 07:02:00,45.7,43.2,28.91,NW,320,0.0,0.0,91,0.00,OVC,FEW,0.00,0.0,WeatherDisplay:10.37,2013-04-18 05:02:00,
2013-04-18 07:07:00,45.7,43.2,28.91,NW,320,0.0,0.0,91,0.00,OVC,FEW,0.00,0.0,WeatherDisplay:10.37,2013-04-18 05:07:00,
2013-04-18 07:12:00,46.0,43.6,28.91,West,275,0.0,0.0,91,0.00,OVC,FEW,0.00,0.0,WeatherDisplay:10.37,2013-04-18 05:12:00,
2013-04-18 07:17:00,46.9,44.4,28.91,North,355,0.0,0.0,91,0.00,OVC,FEW,0.00,0.0,WeatherDisplay:10.37,2013-04-18 05:17:00,
2013-04-18 07:49:00,50.4,46.0,28.91,NE,35,0.0,0.0,85,0.00,OVC,FEW,0.00,0.0,WeatherDisplay:10.37,2013-04-18 05:49:00,
2013-04-18 07:54:00,51.1,46.7,28.91,WNW,290,0.0,0.0,85,0.00,OVC,FEW,0.00,0.0,WeatherDisplay:10.37,2013-04-18 05:54:00,
2013-04-18 07:59:00,53.8,48.4,28.91,WNW,285,0.0,0.0,82,0.00,OVC,FEW,0.00,0.0,WeatherDisplay:10.37,2013-04-18 05:59:00,
2013-04-18 08:04:00,54.0,47.9,28.91,NNE,15,0.0,0.0,80,0.00,OVC,FEW,0.00,0.0,WeatherDisplay:10.37,2013-04-18 06:04:00,
2013-04-18 08:09:00,54.3,48.3,28.91,North,0,0.0,0.0,80,0.00,OVC,FEW,0.00,0.0,WeatherDisplay:10.37,2013-04-18 06:09:00,
2013-04-18 08:14:00,56.3,49.2,28.91,East,100,0.0,0.0,77,0.00,OVC,FEW,0.00,0.0,WeatherDisplay:10.37,2013-04-18 06:14:00,
2013-04-18 08:19:00,56.3,49.2,28.91,East,100,0.0,0.0,77,0.00,OVC,FEW,0.00,0.0,WeatherDisplay:10.37,2013-04-18 06:19:00,
2013-04-18 08:24:00,57.2,49.0,28.91,NE,40,0.0,0.0,74,0.00,OVC,FEW,0.00,0.0,WeatherDisplay:10.37,2013-04-18 06:24:00,
2013-04-18 08:29:00,58.6,50.4,28.91,NNE,15,0.0,0.0,74,0.00,OVC,FEW,0.00,0.0,WeatherDisplay:10.37,2013-04-18 06:29:00,
2013-04-18 08:35:00,60.4,51.4,28.91,NNE,25,0.0,0.0,72,0.00,OVC,FEW,0.00,0.0,WeatherDisplay:10.37,2013-04-18 06:35:00,
2013-04-18 08:40:00,60.1,50.6,28.91,NNE,25,0.0,0.2,71,0.00,OVC,FEW,0.00,0.0,WeatherDisplay:10.37,2013-04-18 06:40:00,
2013-04-18 08:46:00,60.8,51.0,28.91,North,5,1.1,1.1,70,0.00,OVC,FEW,0.00,0.0,WeatherDisplay:10.37,2013-04-18 06:46:00,
2013-04-18 08:51:00,61.3,51.1,28.91,NE,35,1.1,1.5,69,0.00,OVC,FEW,0.00,0.0,WeatherDisplay:10.37,2013-04-18 06:51:00,
2013-04-18 08:58:00,62.4,51.3,28.91,NW,315,1.1,1.5,67,0.00,OVC,FEW,0.00,0.0,WeatherDisplay:10.37,2013-04-18 06:58:00,
2013-04-18 09:04:00,64.0,51.6,28.91,NE,35,0.0,0.0,64,0.00,OVC,FEW,0.00,0.0,WeatherDisplay:10.37,2013-04-18 07:04:00,
2013-04-18 09:09:00,65.1,51.8,28.91,NE,45,0.0,0.2,62,0.00,OVC,FEW,0.00,0.0,WeatherDisplay:10.37,2013-04-18 07:09:00,
2013-04-18 09:14:00,65.3,51.9,28.91,North,355,1.1,1.3,62,0.00,OVC,FEW,0.00,0.0,WeatherDisplay:10.37,2013-04-18 07:14:00,
2013-04-18 09:19:00,65.3,51.9,28.91,North,355,1.1,1.3,62,0.00,OVC,FEW,0.00,0.0,WeatherDisplay:10.37,2013-04-18 07:19:00,
2013-04-18 09:24:00,65.7,51.8,28.91,NNW,330,4.6,4.9,61,0.00,OVC,FEW,0.00,0.0,WeatherDisplay:10.37,2013-04-18 07:24:00,
2013-04-18 09:29:00,66.2,52.3,28.91,NNE,15,4.6,4.9,61,0.00,OVC,FEW,0.00,0.0,WeatherDisplay:10.37,2013-04-18 07:29:00,
2013-04-18 09:36:00,66.9,52.1,28.91,NNW,340,4.6,4.6,59,0.00,OVC,FEW,0.00,0.0,WeatherDisplay:10.37,2013-04-18 07:36:00,
2013-04-18 09:41:00,66.9,52.1,28.91,ENE,60,3.5,3.8,59,0.00,OVC,FEW,0.00,0.0,WeatherDisplay:10.37,2013-04-18 07:41:00,
2013-04-18 09:46:00,66.9,52.1,28.91,West,265,4.6,4.6,59,0.00,OVC,FEW,0.00,0.0,WeatherDisplay:10.37,2013-04-18 07:46:00,
2013-04-18 09:51:00,68.5,53.2,28.91,WSW,245,2.3,2.4,58,0.00,OVC,FEW,0.00,0.0,WeatherDisplay:10.37,2013-04-18 07:51:00,
2013-04-18 09:56:00,69.1,53.2,28.91,SW,225,2.3,2.6,57,0.00,OVC,FEW,0.00,0.0,WeatherDisplay:10.37,2013-04-18 07:56:00,
2013-04-18 10:01:00,69.1,53.2,28.91,SW,225,2.3,2.6,57,0.00,OVC,FEW,0.00,0.0,WeatherDisplay:10.37,2013-04-18 08:01:00,
2013-04-18 10:06:00,69.1,53.2,28.91,SW,225,2.3,2.6,57,0.00,OVC,FEW,0.00,0.0,WeatherDisplay:10.37,2013-04-18 08:06:00,
2013-04-18 10:11:00,69.3,51.9,28.91,NNW,340,8.1,8.3,54,0.00,OVC,FEW,0.00,0.0,WeatherDisplay:10.37,2013-04-18 08:11:00,
2013-04-18 10:16:00,69.4,51.6,28.91,West,280,10.4,10.4,53,0.00,OVC,FEW,0.00,0.0,WeatherDisplay:10.37,2013-04-18 08:16:00,
2013-04-18 10:21:00,71.4,53.4,28.91,WNW,290,3.5,3.5,53,0.00,OVC,FEW,0.00,0.0,WeatherDisplay:10.37,2013-04-18 08:21:00,
2013-04-18 10:26:00,71.2,51.6,28.91,NW,315,4.6,4.6,50,0.00,OVC,FEW,0.00,0.0,WeatherDisplay:10.37,2013-04-18 08:26:00,
2013-04-18 10:31:00,71.2,51.6,28.91,NW,315,4.6,4.6,50,0.00,OVC,FEW,0.00,0.0,WeatherDisplay:10.37,2013-04-18 08:31:00,
2013-04-18 10:36:00,70.7,51.7,28.88,NW,325,6.9,6.9,51,0.00,OVC,FEW,0.00,0.0,WeatherDisplay:10.37,2013-04-18 08:36:00,
2013-04-18 10:42:00,71.6,51.4,28.88,West,265,5.8,6.2,49,0.00,OVC,FEW,0.00,0.0,WeatherDisplay:10.37,2013-04-18 08:42:00,
2013-04-18 10:47:00,71.4,51.8,28.88,SW,215,8.1,8.1,50,0.00,OVC,FEW,0.00,0.0,WeatherDisplay:10.37,2013-04-18 08:47:00,
2013-04-18 10:52:00,72.0,51.8,28.88,SSE,165,4.6,4.6,49,0.00,OVC,FEW,0.00,0.0,WeatherDisplay:10.37,2013-04-18 08:52:00,
2013-04-18 10:57:00,72.9,50.9,28.88,NE,40,4.6,4.9,46,0.00,OVC,FEW,0.00,0.0,WeatherDisplay:10.37,2013-04-18 08:57:00,
2013-04-18 11:02:00,71.8,50.5,28.88,NE,55,4.6,4.7,47,0.00,OVC,FEW,0.00,0.0,WeatherDisplay:10.37,2013-04-18 09:02:00,
2013-04-18 11:07:00,72.0,51.8,28.88,North,355,5.8,5.8,49,0.00,OVC,FEW,0.00,0.0,WeatherDisplay:10.37,2013-04-18 09:07:00,
2013-04-18 11:12:00,72.0,51.8,28.88,North,355,5.8,5.8,49,0.00,OVC,FEW,0.00,0.0,WeatherDisplay:10.37,2013-04-18 09:12:00,
2013-04-18 11:17:00,72.0,51.8,28.88,North,355,5.8,5.8,49,0.00,OVC,FEW,0.00,0.0,WeatherDisplay:10.37,2013-04-18 09:17:00,
2013-04-18 11:22:00,72.7,51.3,28.91,WNW,290,3.5,3.5,47,0.00,OVC,FEW,0.00,0.0,WeatherDisplay:10.37,2013-04-18 09:22:00,
2013-04-18 11:27:00,72.9,52.0,28.91,NE,40,3.5,3.8,48,0.00,OVC,FEW,0.00,0.0,WeatherDisplay:10.37,2013-04-18 09:27:00,
2013-04-18 11:32:00,73.8,51.7,28.88,NNW,340,2.3,2.6,46,0.00,OVC,FEW,0.00,0.0,WeatherDisplay:10.37,2013-04-18 09:32:00,
2013-04-18 11:37:00,73.8,51.7,28.88,NNW,340,2.3,2.6,46,0.00,OVC,FEW,0.00,0.0,WeatherDisplay:10.37,2013-04-18 09:37:00,
2013-04-18 11:42:00,73.8,51.7,28.88,NNW,340,2.3,2.6,46,0.00,OVC,FEW,0.00,0.0,WeatherDisplay:10.37,2013-04-18 09:42:00,
2013-04-18 11:47:00,72.7,51.3,28.91,NE,40,9.2,9.2,47,0.00,OVC,FEW,0.00,0.0,WeatherDisplay:10.37,2013-04-18 09:47:00,
2013-04-18 11:52:00,73.0,50.4,28.91,NNE,30,3.5,3.5,45,0.00,OVC,FEW,0.00,0.0,WeatherDisplay:10.37,2013-04-18 09:52:00,
2013-04-18 11:57:00,73.0,50.4,28.91,NNE,30,3.5,3.5,45,0.00,OVC,FEW,0.00,0.0,WeatherDisplay:10.37,2013-04-18 09:57:00,
2013-04-18 12:02:00,73.8,51.7,28.88,NE,45,3.5,3.5,46,0.00,OVC,FEW,0.00,0.0,WeatherDisplay:10.37,2013-04-18 10:02:00,
2013-04-18 12:07:00,74.1,52.0,28.88,NW,315,3.5,3.5,46,0.00,OVC,FEW,0.00,0.0,WeatherDisplay:10.37,2013-04-18 10:07:00,
2013-04-18 12:12:00,74.1,52.0,28.88,NW,315,3.5,3.5,46,0.00,OVC,FEW,0.00,0.0,WeatherDisplay:10.37,2013-04-18 10:12:00,
2013-04-18 12:17:00,73.9,51.8,28.88,NW,315,6.9,6.9,46,0.00,OVC,FEW,0.00,0.0,WeatherDisplay:10.37,2013-04-18 10:17:00,
2013-04-18 12:22:00,73.6,50.9,28.88,ESE,105,1.1,1.1,45,0.00,OVC,FEW,0.00,0.0,WeatherDisplay:10.37,2013-04-18 10:22:00,
2013-04-18 12:27:00,73.8,52.3,28.88,WNW,290,8.1,8.1,47,0.00,OVC,FEW,0.00,0.0,WeatherDisplay:10.37,2013-04-18 10:27:00,
2013-04-18 12:32:00,73.4,51.4,28.88,NE,50,6.9,7.0,46,0.00,OVC,FEW,0.00,0.0,WeatherDisplay:10.37,2013-04-18 10:32:00,
2013-04-18 12:37:00,73.4,51.4,28.88,NE,50,6.9,7.0,46,0.00,OVC,FEW,0.00,0.0,WeatherDisplay:10.37,2013-04-18 10:37:00,
2013-04-18 12:42:00,74.1,52.0,28.88,West,265,3.5,3.5,46,0.00,OVC,FEW,0.00,0.0,WeatherDisplay:10.37,2013-04-18 10:42:00,
2013-04-18 12:47:00,74.5,51.7,28.88,SSE,165,2.3,2.6,45,0.00,OVC,FEW,0.00,0.0,WeatherDisplay:10.37,2013-04-18 10:47:00,
2013-04-18 12:52:00,74.5,52.3,28.88,North,5,3.5,3.8,46,0.00,OVC,FEW,0.00,0.0,WeatherDisplay:10.37,2013-04-18 10:52:00,
2013-04-18 12:57:00,73.9,51.8,28.88,WSW,250,5.8,5.8,46,0.00,OVC,FEW,0.00,0.0,WeatherDisplay:10.37,2013-04-18 10:57:00,
2013-04-18 13:02:00,73.8,51.7,28.85,WSW,245,5.8,5.8,46,0.00,OVC,FEW,0.00,0.0,WeatherDisplay:10.37,2013-04-18 11:02:00,
2013-04-18 13:07:00,74.1,52.0,28.85,West,265,8.1,8.5,46,0.00,OVC,FEW,0.00,0.0,WeatherDisplay:10.37,2013-04-18 11:07:00,
2013-04-18 13:12:00,74.1,52.0,28.85,West,265,8.1,8.5,46,0.00,OVC,FEW,0.00,0.0,WeatherDisplay:10.37,2013-04-18 11:12:00,
2013-04-18 13:17:00,75.4,52.6,28.85,North,5,6.9,6.9,45,0.00,OVC,FEW,0.00,0.0,WeatherDisplay:10.37,2013-04-18 11:17:00,
2013-04-18 13:22:00,75.6,52.1,28.85,WNW,290,8.1,8.3,44,0.00,OVC,FEW,0.00,0.0,WeatherDisplay:10.37,2013-04-18 11:22:00,
2013-04-18 13:27:00,75.2,51.8,28.85,West,260,6.9,6.9,44,0.00,OVC,FEW,0.00,0.0,WeatherDisplay:10.37,2013-04-18 11:27:00,
2013-04-18 13:32:00,75.2,51.8,28.85,West,260,6.9,6.9,44,0.00,OVC,FEW,0.00,0.0,WeatherDisplay:10.37,2013-04-18 11:32:00,
2013-04-18 13:37:00,74.8,51.5,28.85,SSW,195,5.8,6.0,44,0.00,OVC,FEW,0.00,0.0,WeatherDisplay:10.37,2013-04-18 11:37:00,
2013-04-18 13:42:00,74.5,51.7,28.85,West,275,11.5,11.5,45,0.00,OVC,FEW,0.00,0.0,WeatherDisplay:10.37,2013-04-18 11:42:00,
2013-04-18 13:47:00,74.8,51.5,28.85,SSW,205,3.5,4.0,44,0.00,OVC,FEW,0.00,0.0,WeatherDisplay:10.37,2013-04-18 11:47:00,
2013-04-18 13:52:00,75.2,51.8,28.85,WNW,295,6.9,6.9,44,0.00,OVC,FEW,0.00,0.0,WeatherDisplay:10.37,2013-04-18 11:52:00,
2013-04-18 13:57:00,76.3,51.5,28.85,WNW,285,8.1,8.1,42,0.00,OVC,FEW,0.00,0.0,WeatherDisplay:10.37,2013-04-18 11:57:00,
2013-04-18 14:02:00,76.8,52.0,28.85,West,275,5.8,5.8,42,0.00,OVC,FEW,0.00,0.0,WeatherDisplay:10.37,2013-04-18 12:02:00,
2013-04-18 14:07:00,77.7,51.5,28.85,SW,220,5.8,6.0,40,0.00,OVC,FEW,0.00,0.0,WeatherDisplay:10.37,2013-04-18 12:07:00,
2013-04-18 14:12:00,77.7,51.5,28.85,SW,220,5.8,6.0,40,0.00,OVC,FEW,0.00,0.0,WeatherDisplay:10.37,2013-04-18 12:12:00,
2013-04-18 14:17:00,77.7,50.8,28.85,NW,305,6.9,7.0,39,0.00,OVC,FEW,0.00,0.0,WeatherDisplay:10.37,2013-04-18 12:17:00,
2013-04-18 14:22:00,78.3,50.6,28.85,NNW,340,9.2,9.2,38,0.00,OVC,FEW,0.00,0.0,WeatherDisplay:10.37,2013-04-18 12:22:00,
2013-04-18 14:27:00,79.7,51.8,28.85,SSE,150,4.6,4.9,38,0.00,OVC,FEW,0.00,0.0,WeatherDisplay:10.37,2013-04-18 12:27:00,
2013-04-18 14:32:00,79.7,51.1,28.85,North,350,6.9,6.9,37,0.00,OVC,FEW,0.00,0.0,WeatherDisplay:10.37,2013-04-18 12:32:00,
2013-04-18 14:37:00,79.7,51.1,28.85,North,350,6.9,6.9,37,0.00,OVC,FEW,0.00,0.0,WeatherDisplay:10.37,2013-04-18 12:37:00,
2013-04-18 14:42:00,79.5,50.2,28.85,West,270,4.6,5.1,36,0.00,OVC,FEW,0.00,0.0,WeatherDisplay:10.37,2013-04-18 12:42:00,
2013-04-18 14:47:00,79.9,51.3,28.85,SE,135,8.1,8.3,37,0.00,OVC,FEW,0.00,0.0,WeatherDisplay:10.37,2013-04-18 12:47:00,
2013-04-18 14:52:00,80.2,51.6,28.85,ENE,65,4.6,4.6,37,0.00,OVC,FEW,0.00,0.0,WeatherDisplay:10.37,2013-04-18 12:52:00,
2013-04-18 14:57:00,80.2,51.6,28.85,ENE,75,3.5,3.8,37,0.00,OVC,FEW,0.00,0.0,WeatherDisplay:10.37,2013-04-18 12:57:00,
2013-04-18 15:02:00,79.7,50.4,28.82,North,5,12.7,12.7,36,0.00,OVC,FEW,0.00,0.0,WeatherDisplay:10.37,2013-04-18 13:02:00,
2013-04-18 15:07:00,79.9,50.5,28.82,NNE,15,5.8,5.8,36,0.00,OVC,FEW,0.00,0.0,WeatherDisplay:10.37,2013-04-18 13:07:00,
2013-04-18 15:12:00,79.9,50.5,28.82,NNE,15,5.8,5.8,36,0.00,OVC,FEW,0.00,0.0,WeatherDisplay:10.37,2013-04-18 13:12:00,
2013-04-18 15:17:00,79.5,50.2,28.82,NNE,25,6.9,7.1,36,0.00,OVC,FEW,0.00,0.0,WeatherDisplay:10.37,2013-04-18 13:17:00,
2013-04-18 15:22:00,81.7,52.1,28.82,North,5,4.6,4.7,36,0.00,OVC,FEW,0.00,0.0,WeatherDisplay:10.37,2013-04-18 13:22:00,
2013-04-18 15:27:00,81.0,52.2,28.82,NNE,20,12.7,13.2,37,0.00,OVC,FEW,0.00,0.0,WeatherDisplay:10.37,2013-04-18 13:27:00,
2013-04-18 15:32:00,81.3,51.0,28.82,NE,35,8.1,8.1,35,0.00,OVC,FEW,0.00,0.0,WeatherDisplay:10.37,2013-04-18 13:32:00,
2013-04-18 15:38:00,81.3,51.0,28.82,NE,35,8.1,8.1,35,0.00,OVC,FEW,0.00,0.0,WeatherDisplay:10.37,2013-04-18 13:38:00,
2013-04-18 15:43:00,81.7,52.1,28.82,NE,50,5.8,6.2,36,0.00,OVC,FEW,0.00,0.0,WeatherDisplay:10.37,2013-04-18 13:43:00,
2013-04-18 15:48:00,80.8,52.1,28.82,NE,40,6.9,7.3,37,0.00,OVC,FEW,0.00,0.0,WeatherDisplay:10.37,2013-04-18 13:48:00,
2013-04-18 15:53:00,81.0,51.5,28.82,ENE,70,5.8,6.2,36,0.00,OVC,FEW,0.00,0.0,WeatherDisplay:10.37,2013-04-18 13:53:00,
2013-04-18 15:58:00,79.9,49.8,28.82,NE,35,6.9,6.9,35,0.00,OVC,FEW,0.00,0.0,WeatherDisplay:10.37,2013-04-18 13:58:00,
2013-04-18 16:03:00,79.9,49.8,28.82,NW,325,11.5,11.5,35,0.00,OVC,FEW,0.00,0.0,WeatherDisplay:10.37,2013-04-18 14:03:00,
2013-04-18 16:08:00,79.2,49.9,28.82,NNW,330,10.4,10.4,36,0.00,OVC,FEW,0.00,0.0,WeatherDisplay:10.37,2013-04-18 14:08:00,
2013-04-18 16:13:00,79.2,49.9,28.82,NNW,330,10.4,10.4,36,0.00,OVC,FEW,0.00,0.0,WeatherDisplay:10.37,2013-04-18 14:13:00,
2013-04-18 16:18:00,78.4,50.0,28.82,NE,40,6.9,7.0,37,0.00,OVC,FEW,0.00,0.0,WeatherDisplay:10.37,2013-04-18 14:18:00,
2013-04-18 16:23:00,78.6,50.2,28.82,NNW,345,3.5,3.5,37,0.00,OVC,FEW,0.00,0.0,WeatherDisplay:10.37,2013-04-18 14:23:00,
2013-04-18 16:28:00,78.4,50.7,28.82,NW,320,5.8,5.8,38,0.00,OVC,FEW,0.00,0.0,WeatherDisplay:10.37,2013-04-18 14:28:00,
2013-04-18 16:33:00,78.3,49.8,28.82,ENE,60,9.2,9.2,37,0.00,OVC,FEW,0.00,0.0,WeatherDisplay:10.37,2013-04-18 14:33:00,
2013-04-18 16:38:00,78.3,49.8,28.82,ENE,60,9.2,9.2,37,0.00,OVC,FEW,0.00,0.0,WeatherDisplay:10.37,2013-04-18 14:38:00,
2013-04-18 16:43:00,78.3,51.3,28.82,NNE,20,8.1,8.1,39,0.00,OVC,FEW,0.00,0.0,WeatherDisplay:10.37,2013-04-18 14:43:00,
2013-04-18 16:48:00,79.2,52.1,28.82,North,5,5.8,6.0,39,0.00,OVC,FEW,0.00,0.0,WeatherDisplay:10.37,2013-04-18 14:48:00,
2013-04-18 16:53:00,78.8,51.7,28.82,North,355,9.2,9.6,39,0.00,OVC,FEW,0.00,0.0,WeatherDisplay:10.37,2013-04-18 14:53:00,
2013-04-18 16:58:00,78.6,51.6,28.82,NNW,345,8.1,8.1,39,0.00,OVC,FEW,0.00,0.0,WeatherDisplay:10.37,2013-04-18 14:58:00,
2013-04-18 17:03:00,78.1,51.8,28.82,ENE,60,8.1,8.1,40,0.00,OVC,FEW,0.00,0.0,WeatherDisplay:10.37,2013-04-18 15:03:00,
2013-04-18 17:08:00,77.7,52.8,28.82,NNE,15,9.2,9.2,42,0.00,OVC,FEW,0.00,0.0,WeatherDisplay:10.37,2013-04-18 15:08:00,
2013-04-18 17:13:00,77.7,52.8,28.82,NNE,15,9.2,9.2,42,0.00,OVC,FEW,0.00,0.0,WeatherDisplay:10.37,2013-04-18 15:13:00,
2013-04-18 17:18:00,77.4,53.1,28.79,WSW,250,5.8,6.0,43,0.00,OVC,FEW,0.00,0.0,WeatherDisplay:10.37,2013-04-18 15:18:00,
2013-04-18 17:23:00,77.7,53.4,28.79,WNW,285,6.9,6.9,43,0.00,OVC,FEW,0.00,0.0,WeatherDisplay:10.37,2013-04-18 15:23:00,
2013-04-18 17:28:00,79.2,54.1,28.79,NNE,15,6.9,6.9,42,0.00,OVC,FEW,0.00,0.0,WeatherDisplay:10.37,2013-04-18 15:28:00,
2013-04-18 17:33:00,78.6,53.6,28.79,NE,50,11.5,12.1,42,0.00,OVC,FEW,0.00,0.0,WeatherDisplay:10.37,2013-04-18 15:33:00,
2013-04-18 17:38:00,78.6,53.6,28.79,NE,50,11.5,12.1,42,0.00,OVC,FEW,0.00,0.0,WeatherDisplay:10.37,2013-04-18 15:38:00,
2013-04-18 17:43:00,77.2,53.6,28.79,NNE,30,10.4,10.4,44,0.00,OVC,FEW,0.00,0.0,WeatherDisplay:10.37,2013-04-18 15:43:00,
2013-04-18 17:48:00,76.3,52.8,28.82,NNE,30,8.1,8.5,44,0.00,OVC,FEW,0.00,0.0,WeatherDisplay:10.37,2013-04-18 15:48:00,
2013-04-18 17:53:00,75.9,53.0,28.82,NE,50,9.2,9.8,45,0.00,OVC,FEW,0.00,0.0,WeatherDisplay:10.37,2013-04-18 15:53:00,
2013-04-18 17:58:00,76.3,52.8,28.82,NW,315,3.5,3.8,44,0.00,OVC,FEW,0.00,0.0,WeatherDisplay:10.37,2013-04-18 15:58:00,
2013-04-18 18:03:00,77.4,53.1,28.79,North,355,2.3,2.4,43,0.00,OVC,FEW,0.00,0.0,WeatherDisplay:10.37,2013-04-18 16:03:00,
2013-04-18 18:08:00,78.1,53.8,28.79,WNW,295,3.5,3.5,43,0.00,OVC,FEW,0.00,0.0,WeatherDisplay:10.37,2013-04-18 16:08:00,
2013-04-18 18:13:00,79.0,53.3,28.82,NNE,20,5.8,5.8,41,0.00,OVC,FEW,0.00,0.0,WeatherDisplay:10.37,2013-04-18 16:13:00,
2013-04-18 18:18:00,79.0,53.3,28.82,NNE,20,5.8,5.8,41,0.00,OVC,FEW,0.00,0.0,WeatherDisplay:10.37,2013-04-18 16:18:00,
2013-04-18 18:23:00,77.9,52.3,28.82,NNW,345,8.1,8.1,41,0.00,OVC,FEW,0.00,0.0,WeatherDisplay:10.37,2013-04-18 16:23:00,
2013-04-18 18:28:00,77.7,52.1,28.82,NNW,345,8.1,8.1,41,0.00,OVC,FEW,0.00,0.0,WeatherDisplay:10.37,2013-04-18 16:28:00,
2013-04-18 18:33:00,77.7,52.1,28.82,NNW,345,8.1,8.1,41,0.00,OVC,FEW,0.00,0.0,WeatherDisplay:10.37,2013-04-18 16:33:00,
2013-04-18 18:38:00,77.2,52.3,28.82,NW,315,9.8,9.8,42,0.00,OVC,FEW,0.00,0.0,WeatherDisplay:10.37,2013-04-18 16:38:00,
2013-04-18 18:43:00,77.2,52.3,28.82,NW,315,9.2,9.8,42,0.00,OVC,FEW,0.00,0.0,WeatherDisplay:10.37,2013-04-18 16:43:00,
2013-04-18 18:48:00,76.6,51.8,28.82,NNW,340,6.9,7.0,42,0.00,OVC,FEW,0.00,0.0,WeatherDisplay:10.37,2013-04-18 16:48:00,
2013-04-18 18:53:00,76.5,52.3,28.82,NE,35,8.1,8.1,43,0.00,OVC,FEW,0.00,0.0,WeatherDisplay:10.37,2013-04-18 16:53:00,
2013-04-18 18:58:00,76.1,52.6,28.82,NE,35,4.6,4.6,44,0.00,OVC,FEW,0.00,0.0,WeatherDisplay:10.37,2013-04-18 16:58:00,
2013-04-18 19:03:00,76.1,52.6,28.82,NE,35,4.6,4.6,44,0.00,OVC,FEW,0.00,0.0,WeatherDisplay:10.37,2013-04-18 17:03:00,
2013-04-18 19:08:00,75.9,53.0,28.79,NNE,30,3.5,3.8,45,0.00,OVC,FEW,0.00,0.0,WeatherDisplay:10.37,2013-04-18 17:08:00,
2013-04-18 19:13:00,75.7,52.9,28.82,NNE,15,8.1,8.1,45,0.00,OVC,FEW,0.00,0.0,WeatherDisplay:10.37,2013-04-18 17:13:00,
2013-04-18 19:18:00,75.7,52.9,28.82,NNE,15,8.1,8.1,45,0.00,OVC,FEW,0.00,0.0,WeatherDisplay:10.37,2013-04-18 17:18:00,
2013-04-18 19:23:00,74.8,52.7,28.82,NNE,15,2.3,2.6,46,0.00,OVC,FEW,0.00,0.0,WeatherDisplay:10.37,2013-04-18 17:23:00,
2013-04-18 19:28:00,74.3,52.8,28.82,West,260,5.8,5.8,47,0.00,OVC,FEW,0.00,0.0,WeatherDisplay:10.37,2013-04-18 17:28:00,
2013-04-18 19:33:00,73.6,52.7,28.82,North,0,4.6,4.6,48,0.00,OVC,FEW,0.00,0.0,WeatherDisplay:10.37,2013-04-18 17:33:00,
2013-04-18 19:38:00,73.4,53.1,28.82,NNE,25,8.1,8.1,49,0.00,OVC,FEW,0.00,0.0,WeatherDisplay:10.37,2013-04-18 17:38:00,
2013-04-18 19:43:00,73.4,53.1,28.82,NNE,25,8.1,8.1,49,0.00,OVC,FEW,0.00,0.0,WeatherDisplay:10.37,2013-04-18 17:43:00,
2013-04-18 19:48:00,73.4,53.1,28.82,WNW,285,10.4,10.4,49,0.00,OVC,FEW,0.00,0.0,WeatherDisplay:10.37,2013-04-18 17:48:00,
2013-04-18 19:53:00,72.5,52.8,28.82,NNW,335,4.6,4.6,50,0.00,OVC,FEW,0.00,0.0,WeatherDisplay:10.37,2013-04-18 17:53:00,
2013-04-18 19:58:00,71.4,52.9,28.82,WNW,300,3.5,3.5,52,0.00,OVC,FEW,0.00,0.0,WeatherDisplay:10.37,2013-04-18 17:58:00,
2013-04-18 20:03:00,71.2,52.7,28.79,West,270,2.3,2.3,52,0.00,OVC,FEW,0.00,0.0,WeatherDisplay:10.37,2013-04-18 18:03:00,
2013-04-18 20:08:00,70.7,52.7,28.79,NW,325,2.3,2.3,53,0.00,OVC,FEW,0.00,0.0,WeatherDisplay:10.37,2013-04-18 18:08:00,
2013-04-18 20:13:00,70.2,52.7,28.82,WNW,285,1.1,1.1,54,0.00,OVC,FEW,0.00,0.0,WeatherDisplay:10.37,2013-04-18 18:13:00,
2013-04-18 20:18:00,70.2,52.7,28.82,WNW,285,1.1,1.1,54,0.00,OVC,FEW,0.00,0.0,WeatherDisplay:10.37,2013-04-18 18:18:00,
2013-04-18 20:23:00,69.4,52.6,28.82,WNW,285,0.0,0.0,55,0.00,OVC,FEW,0.00,0.0,WeatherDisplay:10.37,2013-04-18 18:23:00,
2013-04-18 20:28:00,69.1,53.2,28.82,WNW,290,1.1,1.1,57,0.00,OVC,FEW,0.00,0.0,WeatherDisplay:10.37,2013-04-18 18:28:00,
2013-04-18 20:33:00,68.5,53.2,28.82,West,280,0.0,0.0,58,0.00,CLR,FEW,0.00,0.0,WeatherDisplay:10.37,2013-04-18 18:33:00,
2013-04-18 20:38:00,67.8,53.0,28.82,WNW,290,0.0,0.0,59,0.00,CLR,FEW,0.00,0.0,WeatherDisplay:10.37,2013-04-18 18:38:00,
2013-04-18 20:43:00,67.8,53.0,28.82,WNW,290,0.0,0.0,59,0.00,CLR,FEW,0.00,0.0,WeatherDisplay:10.37,2013-04-18 18:43:00,
2013-04-18 20:48:00,67.5,52.6,28.85,WSW,240,0.0,0.0,59,0.00,CLR,FEW,0.00,0.0,WeatherDisplay:10.37,2013-04-18 18:48:00,
2013-04-18 20:53:00,66.9,52.6,28.85,WSW,240,0.0,0.0,60,0.00,CLR,FEW,0.00,0.0,WeatherDisplay:10.37,2013-04-18 18:53:00,
2013-04-18 20:58:00,66.4,52.5,28.85,WSW,240,0.0,0.0,61,0.00,CLR,FEW,0.00,0.0,WeatherDisplay:10.37,2013-04-18 18:58:00,
2013-04-18 21:03:00,65.8,52.5,28.85,West,270,1.1,1.1,62,0.00,CLR,FEW,0.00,0.0,WeatherDisplay:10.37,2013-04-18 19:03:00,
2013-04-18 21:08:00,66.2,52.8,28.85,NW,325,2.3,2.3,62,0.00,CLR,FEW,0.00,0.0,WeatherDisplay:10.37,2013-04-18 19:08:00,
2013-04-18 21:13:00,67.1,53.2,28.85,North,5,3.5,3.5,61,0.00,CLR,FEW,0.00,0.0,WeatherDisplay:10.37,2013-04-18 19:13:00,
2013-04-18 21:18:00,67.1,53.2,28.85,North,5,3.5,3.5,61,0.00,CLR,FEW,0.00,0.0,WeatherDisplay:10.37,2013-04-18 19:18:00,
2013-04-18 21:23:00,68.4,53.5,28.85,North,5,4.6,4.6,59,0.00,CLR,FEW,0.00,0.0,WeatherDisplay:10.37,2013-04-18 19:23:00,
2013-04-18 21:28:00,67.8,53.4,28.85,NE,35,4.6,4.6,60,0.00,CLR,FEW,0.00,0.0,WeatherDisplay:10.37,2013-04-18 19:28:00,
2013-04-18 21:33:00,66.7,53.7,28.85,NNE,25,1.1,1.7,63,0.00,CLR,FEW,0.00,0.0,WeatherDisplay:10.37,2013-04-18 19:33:00,
2013-04-18 21:38:00,65.7,54.4,28.85,NW,325,1.1,1.1,67,0.00,CLR,FEW,0.00,0.0,WeatherDisplay:10.37,2013-04-18 19:38:00,
2013-04-18 21:43:00,65.7,54.4,28.85,NW,325,1.1,1.1,67,0.00,CLR,FEW,0.00,0.0,WeatherDisplay:10.37,2013-04-18 19:43:00,
2013-04-18 21:48:00,65.1,53.9,28.85,North,10,0.0,0.4,67,0.00,CLR,FEW,0.00,0.0,WeatherDisplay:10.37,2013-04-18 19:48:00,
2013-04-18 21:53:00,64.6,53.8,28.85,WNW,300,0.0,0.0,68,0.00,CLR,FEW,0.00,0.0,WeatherDisplay:10.37,2013-04-18 19:53:00,
2013-04-18 21:58:00,64.2,53.4,28.85,NNW,345,0.0,0.0,68,0.00,CLR,FEW,0.00,0.0,WeatherDisplay:10.37,2013-04-18 19:58:00,
2013-04-18 22:03:00,63.9,53.5,28.85,NNW,340,0.0,0.0,69,0.00,CLR,FEW,0.00,0.0,WeatherDisplay:10.37,2013-04-18 20:03:00,
2013-04-18 22:08:00,63.1,53.6,28.85,NW,310,0.0,0.0,71,0.00,CLR,FEW,0.00,0.0,WeatherDisplay:10.37,2013-04-18 20:08:00,
2013-04-18 22:13:00,62.6,53.8,28.85,SW,230,0.0,0.0,73,0.00,CLR,FEW,0.00,0.0,WeatherDisplay:10.37,2013-04-18 20:13:00,
2013-04-18 22:18:00,62.6,53.8,28.85,SW,230,0.0,0.0,73,0.00,CLR,FEW,0.00,0.0,WeatherDisplay:10.37,2013-04-18 20:18:00,
2013-04-18 22:23:00,61.5,53.5,28.85,South,185,0.0,0.0,75,0.00,CLR,FEW,0.00,0.0,WeatherDisplay:10.37,2013-04-18 20:23:00,
2013-04-18 22:28:00,61.3,53.3,28.85,SSW,200,0.0,0.0,75,0.00,CLR,FEW,0.00,0.0,WeatherDisplay:10.37,2013-04-18 20:28:00,
2013-04-18 22:33:00,61.3,53.3,28.85,SSW,200,0.0,0.0,75,0.00,CLR,FEW,0.00,0.0,WeatherDisplay:10.37,2013-04-18 20:33:00,
2013-04-18 22:38:00,61.0,53.4,28.85,South,175,0.0,0.0,76,0.00,CLR,FEW,0.00,0.0,WeatherDisplay:10.37,2013-04-18 20:38:00,
2013-04-18 22:43:00,61.0,53.4,28.85,South,175,0.0,0.0,76,0.00,CLR,FEW,0.00,0.0,WeatherDisplay:10.37,2013-04-18 20:43:00,
2013-04-18 22:48:00,61.0,53.4,28.85,South,175,0.0,0.0,76,0.00,CLR,FEW,0.00,0.0,WeatherDisplay:10.37,2013-04-18 20:48:00,
2013-04-18 22:53:00,60.6,53.0,28.85,SW,220,0.0,0.0,76,0.00,CLR,FEW,0.00,0.0,WeatherDisplay:10.37,2013-04-18 20:53:00,
2013-04-18 22:58:00,60.6,53.0,28.85,South,185,0.0,0.0,76,0.00,CLR,FEW,0.00,0.0,WeatherDisplay:10.37,2013-04-18 20:58:00,
2013-04-18 23:03:00,60.4,52.8,28.85,SW,230,0.0,0.0,76,0.00,CLR,FEW,0.00,0.0,WeatherDisplay:10.37,2013-04-18 21:03:00,
2013-04-18 23:08:00,60.4,52.8,28.85,WNW,300,0.0,0.0,76,0.00,CLR,FEW,0.00,0.0,WeatherDisplay:10.37,2013-04-18 21:08:00,
2013-04-18 23:13:00,60.1,52.8,28.85,NNW,340,0.0,0.0,77,0.00,CLR,FEW,0.00,0.0,WeatherDisplay:10.37,2013-04-18 21:13:00,
2013-04-18 23:18:00,60.1,52.8,28.85,NNW,340,0.0,0.0,77,0.00,CLR,FEW,0.00,0.0,WeatherDisplay:10.37,2013-04-18 21:18:00,
2013-04-18 23:23:00,60.1,52.5,28.85,North,0,0.0,0.6,76,0.00,CLR,FEW,0.00,0.0,WeatherDisplay:10.37,2013-04-18 21:23:00,
2013-04-18 23:28:00,61.5,52.4,28.85,SW,215,2.3,2.6,72,0.00,CLR,FEW,0.00,0.0,WeatherDisplay:10.37,2013-04-18 21:28:00,
2013-04-18 23:33:00,61.5,52.4,28.85,NW,320,0.0,0.0,72,0.00,CLR,FEW,0.00,0.0,WeatherDisplay:10.37,2013-04-18 21:33:00,
2013-04-18 23:38:00,61.3,52.2,28.85,SW,220,0.0,0.0,72,0.00,CLR,FEW,0.00,0.0,WeatherDisplay:10.37,2013-04-18 21:38:00,
2013-04-18 23:43:00,61.3,52.2,28.85,SW,220,0.0,0.0,72,0.00,CLR,FEW,0.00,0.0,WeatherDisplay:10.37,2013-04-18 21:43:00,
2013-04-18 23:48:00,61.9,52.0,28.85,SW,220,1.1,1.1,70,0.00,CLR,FEW,0.00,0.0,WeatherDisplay:10.37,2013-04-18 21:48:00,
2013-04-18 23:53:00,61.7,52.2,28.85,North,5,1.1,1.1,71,0.00,CLR,FEW,0.00,0.0,WeatherDisplay:10.37,2013-04-18 21:53:00,
2013-04-18 23:58:00,61.3,51.9,28.85,WNW,300,1.1,1.3,71,0.00,CLR,FEW,0.00,0.0,WeatherDisplay:10.37,2013-04-18 21:58:00,